createdAt,value
2023-04-01T00:00:09.607Z,11.57
2023-04-01T00:03:04.477Z,11.57
2023-04-01T00:05:37.258Z,11.57
2023-04-01T00:08:09.766Z,11.57
2023-04-01T00:10:44.111Z,11.56
2023-04-01T00:13:16.901Z,11.53
2023-04-01T00:15:49.704Z,11.52
2023-04-01T00:18:22.118Z,11.53
2023-04-01T00:20:55.106Z,11.55
2023-04-01T00:23:27.515Z,11.56
2023-04-01T00:26:01.143Z,11.57
2023-04-01T00:28:33.553Z,11.55
2023-04-01T00:31:10.741Z,11.54
2023-04-01T00:33:43.555Z,11.55
2023-04-01T00:36:19.496Z,11.56
2023-04-01T00:38:52.811Z,11.55
2023-04-01T00:41:27.237Z,11.56
2023-04-01T00:44:19.186Z,11.55
2023-04-01T00:46:53.727Z,11.56
2023-04-01T00:49:29.107Z,11.55
2023-04-01T00:52:03.829Z,11.54
2023-04-01T00:54:36.784Z,11.54
2023-04-01T00:57:12.101Z,11.53
2023-04-01T00:59:47.475Z,11.55
2023-04-01T01:02:20.611Z,11.54
2023-04-01T01:04:53.146Z,11.53
2023-04-01T01:07:35.013Z,11.53
2023-04-01T01:10:13.658Z,11.53
2023-04-01T01:12:53.581Z,11.53
2023-04-01T01:15:33.323Z,11.52
2023-04-01T01:18:15.026Z,11.53
2023-04-01T01:21:32.279Z,11.52
2023-04-01T01:24:17.081Z,11.51
2023-04-01T01:26:56.777Z,11.51
2023-04-01T01:29:43.768Z,11.51
2023-04-01T01:32:36.651Z,11.51
2023-04-01T01:35:26.955Z,11.48
2023-04-01T01:38:02.064Z,11.46
2023-04-01T01:40:36.760Z,11.44
2023-04-01T01:43:15.032Z,11.43
2023-04-01T01:45:52.500Z,11.40
2023-04-01T01:48:26.887Z,11.38
2023-04-01T01:50:59.650Z,11.39
2023-04-01T01:53:32.279Z,11.39
2023-04-01T01:56:05.260Z,11.40
2023-04-01T01:58:47.670Z,11.44
2023-04-01T02:01:26.676Z,11.45
2023-04-01T02:04:00.532Z,11.47
2023-04-01T02:06:39.299Z,11.47
2023-04-01T02:09:12.997Z,11.46
2023-04-01T02:11:48.984Z,11.43
2023-04-01T02:14:24.825Z,11.40
2023-04-01T02:16:59.831Z,11.39
2023-04-01T02:19:38.849Z,11.39
2023-04-01T02:22:16.722Z,11.42
2023-04-01T02:24:51.358Z,11.43
2023-04-01T02:27:24.190Z,11.43
2023-04-01T02:29:56.905Z,11.43
2023-04-01T02:32:31.816Z,11.44
2023-04-01T02:35:06.940Z,11.42
2023-04-01T02:37:40.421Z,11.40
2023-04-01T02:40:16.142Z,11.38
2023-04-01T02:42:48.842Z,11.39
2023-04-01T02:45:21.679Z,11.37
2023-04-01T02:47:54.030Z,11.35
2023-04-01T02:50:26.426Z,11.33
2023-04-01T02:52:58.726Z,11.33
2023-04-01T02:55:31.656Z,11.33
2023-04-01T02:58:04.325Z,11.33
2023-04-01T03:00:37.009Z,11.33
2023-04-01T03:03:10.043Z,11.34
2023-04-01T03:05:42.686Z,11.34
2023-04-01T03:08:15.085Z,11.33
2023-04-01T03:10:47.479Z,11.32
2023-04-01T03:13:19.804Z,11.32
2023-04-01T03:15:52.239Z,11.34
2023-04-01T03:18:24.974Z,11.34
2023-04-01T03:20:58.200Z,11.34
2023-04-01T03:23:30.497Z,11.36
2023-04-01T03:26:03.000Z,11.36
2023-04-01T03:28:35.435Z,11.37
2023-04-01T03:31:08.401Z,11.36
2023-04-01T03:33:44.888Z,11.37
2023-04-01T03:36:17.349Z,11.38
2023-04-01T03:38:49.953Z,11.39
2023-04-01T03:41:25.288Z,11.39
2023-04-01T03:43:58.425Z,11.37
2023-04-01T03:46:30.950Z,11.36
2023-04-01T03:49:03.504Z,11.36
2023-04-01T03:51:35.807Z,11.35
2023-04-01T03:54:08.571Z,11.33
2023-04-01T03:56:41.526Z,11.31
2023-04-01T03:59:15.204Z,11.31
2023-04-01T04:01:48.356Z,11.33
2023-04-01T04:04:21.161Z,11.33
2023-04-01T04:06:53.886Z,11.33
2023-04-01T04:09:27.174Z,11.32
2023-04-01T04:12:00.132Z,11.33
2023-04-01T04:14:32.633Z,11.31
2023-04-01T04:17:06.576Z,11.31
2023-04-01T04:19:39.005Z,11.30
2023-04-01T04:22:11.589Z,11.30
2023-04-01T04:24:44.562Z,11.30
2023-04-01T04:27:19.108Z,11.28
2023-04-01T04:30:00.163Z,11.27
2023-04-01T04:32:33.727Z,11.27
2023-04-01T04:35:07.551Z,11.25
2023-04-01T04:37:40.090Z,11.28
2023-04-01T04:40:13.812Z,11.29
2023-04-01T04:42:47.625Z,11.28
2023-04-01T04:45:21.029Z,11.29
2023-04-01T04:47:59.563Z,11.31
2023-04-01T04:50:31.862Z,11.32
2023-04-01T04:53:04.482Z,11.34
2023-04-01T04:55:37.270Z,11.34
2023-04-01T04:58:23.795Z,11.32
2023-04-01T05:00:56.544Z,11.31
2023-04-01T05:03:33.230Z,11.29
2023-04-01T05:06:06.877Z,11.29
2023-04-01T05:08:40.499Z,11.28
2023-04-01T05:11:14.795Z,11.29
2023-04-01T05:13:48.879Z,11.29
2023-04-01T05:16:22.392Z,11.29
2023-04-01T05:18:54.723Z,11.28
2023-04-01T05:21:28.285Z,11.29
2023-04-01T05:24:01.559Z,11.28
2023-04-01T05:26:34.152Z,11.27
2023-04-01T05:29:06.924Z,11.26
2023-04-01T05:31:39.688Z,11.27
2023-04-01T05:34:12.203Z,11.28
2023-04-01T05:36:44.620Z,11.27
2023-04-01T05:39:16.989Z,11.26
2023-04-01T05:41:49.845Z,11.24
2023-04-01T05:44:22.245Z,11.24
2023-04-01T05:46:54.537Z,11.25
2023-04-01T05:49:28.997Z,11.26
2023-04-01T05:52:01.553Z,11.24
2023-04-01T05:54:35.207Z,11.24
2023-04-01T05:57:08.311Z,11.25
2023-04-01T05:59:40.937Z,11.25
2023-04-01T06:02:14.178Z,11.25
2023-04-01T06:04:46.985Z,11.26
2023-04-01T06:07:20.650Z,11.25
2023-04-01T06:09:52.949Z,11.23
2023-04-01T06:12:45.916Z,11.22
2023-04-01T06:15:37.478Z,11.21
2023-04-01T06:18:42.467Z,11.20
2023-04-01T06:21:31.604Z,11.21
2023-04-01T06:24:23.221Z,11.19
2023-04-01T06:27:03.314Z,11.18
2023-04-01T06:29:58.560Z,11.18
2023-04-01T06:32:53.651Z,11.20
2023-04-01T06:35:38.816Z,11.20
2023-04-01T06:38:15.913Z,11.19
2023-04-01T06:41:04.505Z,11.18
2023-04-01T06:43:49.709Z,11.14
2023-04-01T06:46:47.975Z,11.10
2023-04-01T06:49:52.242Z,11.08
2023-04-01T06:52:51.345Z,11.07
2023-04-01T06:55:48.729Z,11.05
2023-04-01T06:58:38.142Z,11.03
2023-04-01T07:01:16.415Z,11.00
2023-04-01T07:03:55.006Z,10.98
2023-04-01T07:06:33.998Z,10.95
2023-04-01T07:09:13.059Z,10.90
2023-04-01T07:12:26.159Z,10.88
2023-04-01T07:26:57.704Z,11.28
2023-04-01T07:29:33.511Z,11.33
2023-04-01T07:32:22.418Z,11.24
2023-04-01T07:35:05.857Z,11.15
2023-04-01T07:37:48.626Z,11.03
2023-04-01T07:40:32.500Z,10.93
2023-04-01T07:43:43.795Z,10.83
2023-04-01T07:46:42.718Z,10.72
2023-04-01T07:49:19.892Z,10.67
2023-04-01T07:51:59.877Z,10.66
2023-04-01T07:54:41.145Z,10.60
2023-04-01T07:57:20.347Z,10.55
2023-04-01T08:00:05.919Z,10.50
2023-04-01T08:03:05.809Z,10.44
2023-04-01T08:05:49.715Z,10.40
2023-04-01T08:08:36.881Z,10.34
2023-04-01T08:11:44.483Z,10.27
2023-04-01T08:14:48.705Z,10.21
2023-04-01T08:17:48.684Z,10.19
2023-04-01T08:20:35.538Z,10.23
2023-04-01T08:23:14.272Z,10.22
2023-04-01T08:25:53.622Z,10.20
2023-04-01T08:28:32.751Z,10.21
2023-04-01T08:31:11.835Z,10.18
2023-04-01T08:33:46.747Z,10.14
2023-04-01T08:36:23.290Z,10.12
2023-04-01T08:39:15.588Z,10.12
2023-04-01T08:42:23.883Z,10.12
2023-04-01T08:45:22.788Z,10.12
2023-04-01T08:48:30.335Z,10.15
2023-04-01T08:51:39.738Z,10.18
2023-04-01T08:54:33.356Z,10.22
2023-04-01T08:57:17.807Z,10.25
2023-04-01T09:00:24.254Z,10.28
2023-04-01T09:03:41.261Z,10.31
2023-04-01T09:06:31.480Z,10.33
2023-04-01T09:09:27.780Z,10.34
2023-04-01T09:12:34.745Z,10.33
2023-04-01T09:15:23.066Z,10.34
2023-04-01T09:18:11.535Z,10.38
2023-04-01T09:20:55.636Z,10.40
2023-04-01T09:23:47.215Z,10.42
2023-04-01T09:26:46.686Z,10.46
2023-04-01T09:29:33.545Z,10.51
2023-04-01T09:32:32.601Z,10.53
2023-04-01T09:35:25.584Z,10.52
2023-04-01T09:38:20.121Z,10.53
2023-04-01T09:40:58.849Z,10.55
2023-04-01T09:44:06.538Z,10.56
2023-04-01T09:47:03.470Z,10.61
2023-04-01T09:49:52.769Z,10.70
2023-04-01T09:52:41.064Z,10.74
2023-04-01T09:55:51.061Z,10.78
2023-04-01T09:59:21.070Z,10.84
2023-04-01T10:02:56.994Z,10.89
2023-04-01T10:06:13.394Z,10.91
2023-04-01T10:09:14.791Z,10.93
2023-04-01T10:12:24.779Z,10.91
2023-04-01T10:15:23.907Z,10.86
2023-04-01T10:18:14.845Z,10.86
2023-04-01T10:21:13.741Z,10.88
2023-04-01T10:24:17.882Z,10.84
2023-04-01T10:27:12.408Z,10.81
2023-04-01T10:30:31.152Z,10.79
2023-04-01T10:33:32.671Z,10.75
2023-04-01T10:36:31.127Z,10.71
2023-04-01T10:39:37.470Z,10.65
2023-04-01T10:42:58.239Z,10.61
2023-04-01T10:46:04.193Z,10.54
2023-04-01T10:49:15.870Z,10.56
2023-04-01T10:52:24.109Z,10.63
2023-04-01T10:55:38.790Z,10.63
2023-04-01T10:59:03.388Z,10.64
2023-04-01T11:02:47.910Z,10.62
2023-04-01T11:06:21.912Z,10.58
2023-04-01T11:09:17.590Z,10.56
2023-04-01T11:12:11.977Z,10.55
2023-04-01T11:15:33.438Z,10.50
2023-04-01T11:18:31.813Z,10.53
2023-04-01T11:21:26.646Z,10.58
2023-04-01T11:24:11.011Z,10.57
2023-04-01T11:27:04.201Z,10.59
2023-04-01T11:30:09.561Z,10.61
2023-04-01T11:32:52.865Z,10.60
2023-04-01T11:35:42.321Z,10.58
2023-04-01T11:38:40.854Z,10.56
2023-04-01T11:41:58.855Z,10.52
2023-04-01T11:45:01.430Z,10.47
2023-04-01T11:48:11.756Z,10.48
2023-04-01T11:50:56.348Z,10.74
2023-04-01T11:53:39.318Z,10.78
2023-04-01T11:56:26.923Z,10.75
2023-04-01T11:59:20.567Z,10.69
2023-04-01T12:02:04.268Z,10.62
2023-04-01T12:05:00.622Z,10.56
2023-04-01T12:07:54.038Z,10.51
2023-04-01T12:10:35.960Z,10.45
2023-04-01T12:13:17.528Z,10.40
2023-04-01T12:16:04.149Z,10.37
2023-04-01T12:18:43.433Z,10.37
2023-04-01T12:21:27.712Z,10.34
2023-04-01T12:24:27.665Z,10.33
2023-04-01T12:27:14.836Z,10.31
2023-04-01T12:30:04.634Z,10.28
2023-04-01T12:32:44.257Z,10.21
2023-04-01T12:35:23.966Z,10.16
2023-04-01T12:38:12.907Z,10.12
2023-04-01T12:40:59.882Z,10.08
2023-04-01T12:43:58.732Z,10.04
2023-04-01T12:46:41.848Z,10.03
2023-04-01T12:49:45.449Z,10.07
2023-04-01T12:52:21.168Z,10.04
2023-04-01T12:55:25.871Z,10.04
2023-04-01T12:58:19.744Z,10.05
2023-04-01T13:01:04.284Z,10.04
2023-04-01T13:03:51.520Z,10.01
2023-04-01T13:06:52.655Z,9.96
2023-04-01T13:09:52.047Z,9.90
2023-04-01T13:13:01.215Z,9.86
2023-04-01T13:15:43.249Z,9.83
2023-04-01T13:18:26.417Z,9.82
2023-04-01T13:21:08.260Z,9.85
2023-04-01T13:23:58.060Z,9.85
2023-04-01T13:26:37.180Z,9.85
2023-04-01T13:29:16.760Z,9.86
2023-04-01T13:32:07.296Z,9.82
2023-04-01T13:34:56.544Z,9.75
2023-04-01T13:37:46.380Z,9.69
2023-04-01T13:40:28.622Z,9.62
2023-04-01T13:43:05.236Z,9.56
2023-04-01T13:45:57.504Z,9.52
2023-04-01T13:48:44.076Z,9.54
2023-04-01T13:51:32.565Z,9.58
2023-04-01T13:54:25.125Z,9.57
2023-04-01T13:57:10.745Z,9.54
2023-04-01T14:00:02.517Z,9.50
2023-04-01T14:03:14.107Z,9.45
2023-04-01T14:06:04.205Z,9.39
2023-04-01T14:08:53.718Z,9.39
2023-04-01T14:11:34.780Z,9.36
2023-04-01T14:14:18.845Z,9.36
2023-04-01T14:17:17.860Z,9.40
2023-04-01T14:20:05.172Z,9.38
2023-04-01T14:22:46.605Z,9.36
2023-04-01T14:25:43.583Z,9.31
2023-04-01T14:28:27.627Z,9.25
2023-04-01T14:31:17.500Z,9.24
2023-04-01T14:34:00.669Z,9.21
2023-04-01T14:37:03.574Z,9.12
2023-04-01T14:39:58.736Z,9.05
2023-04-01T14:42:51.364Z,9.03
2023-04-01T14:45:53.193Z,9.08
2023-04-01T14:48:34.473Z,9.11
2023-04-01T14:51:21.060Z,9.06
2023-04-01T14:54:07.028Z,9.06
2023-04-01T14:56:46.004Z,9.07
2023-04-01T14:59:31.748Z,9.02
2023-04-01T15:02:16.361Z,9.00
2023-04-01T15:05:08.279Z,8.95
2023-04-01T15:08:13.101Z,8.90
2023-04-01T15:11:23.886Z,8.90
2023-04-01T15:14:19.678Z,8.92
2023-04-01T15:17:07.463Z,8.92
2023-04-01T15:19:50.965Z,8.95
2023-04-01T15:22:49.648Z,8.89
2023-04-01T15:25:38.484Z,8.84
2023-04-01T15:28:23.381Z,8.82
2023-04-01T15:31:04.669Z,8.82
2023-04-01T15:33:51.334Z,8.81
2023-04-01T15:36:36.256Z,8.76
2023-04-01T15:39:16.500Z,8.74
2023-04-01T15:42:00.879Z,8.72
2023-04-01T15:44:48.985Z,8.75
2023-04-01T15:47:39.670Z,8.74
2023-04-01T15:53:33.822Z,8.73
2023-04-01T15:56:22.861Z,8.68
2023-04-01T15:59:13.672Z,8.66
2023-04-01T16:01:53.865Z,8.62
2023-04-01T16:04:42.639Z,8.59
2023-04-01T16:07:32.946Z,8.52
2023-04-01T16:10:19.820Z,8.52
2023-04-01T16:13:06.380Z,8.51
2023-04-01T16:15:47.527Z,8.47
2023-04-01T16:18:33.236Z,8.48
2023-04-01T16:21:11.376Z,8.50
2023-04-01T16:23:50.669Z,8.48
2023-04-01T16:26:28.776Z,8.46
2023-04-01T16:29:13.980Z,8.41
2023-04-01T16:31:56.064Z,8.34
2023-04-01T16:34:37.460Z,8.29
2023-04-01T16:37:16.707Z,8.25
2023-04-01T16:39:55.108Z,8.21
2023-04-01T16:42:42.571Z,8.24
2023-04-01T16:45:27.857Z,8.24
2023-04-01T16:48:00.236Z,8.25
2023-04-01T16:50:47.807Z,8.25
2023-04-01T16:53:24.723Z,8.27
2023-04-01T16:56:06.649Z,8.26
2023-04-01T16:58:42.116Z,8.19
2023-04-01T17:01:18.952Z,8.16
2023-04-01T17:03:55.677Z,8.11
2023-04-01T17:06:40.368Z,8.07
2023-04-01T17:09:27.742Z,8.01
2023-04-01T17:12:11.363Z,7.94
2023-04-01T17:14:52.396Z,7.93
2023-04-01T17:17:43.701Z,7.99
2023-04-01T17:20:37.189Z,8.04
2023-04-01T17:23:21.403Z,8.05
2023-04-01T17:26:26.935Z,8.08
2023-04-01T17:29:08.133Z,8.10
2023-04-01T17:31:54.825Z,8.05
2023-04-01T17:34:41.389Z,7.99
2023-04-01T17:37:32.990Z,7.92
2023-04-01T17:40:22.454Z,7.87
2023-04-01T17:43:01.100Z,7.82
2023-04-01T17:45:43.825Z,7.88
2023-04-01T17:48:26.584Z,7.84
2023-04-01T17:51:19.477Z,7.80
2023-04-01T17:54:02.019Z,7.82
2023-04-01T17:56:47.493Z,7.81
2023-04-01T17:59:26.465Z,7.83
2023-04-01T18:02:09.594Z,7.84
2023-04-01T18:05:11.771Z,7.83
2023-04-01T18:07:59.976Z,7.79
2023-04-01T18:10:42.587Z,7.78
2023-04-01T18:13:36.916Z,7.78
2023-04-01T18:16:26.242Z,7.79
2023-04-01T18:19:05.073Z,7.80
2023-04-01T18:21:45.994Z,7.79
2023-04-01T18:24:24.821Z,7.80
2023-04-01T18:27:06.952Z,7.82
2023-04-01T18:29:49.960Z,7.84
2023-04-01T18:32:38.000Z,7.86
2023-04-01T18:35:23.593Z,7.84
2023-04-01T18:37:58.292Z,7.84
2023-04-01T18:40:36.557Z,7.79
2023-04-01T18:43:26.061Z,7.76
2023-04-01T18:46:03.191Z,7.73
2023-04-01T18:48:54.556Z,7.70
2023-04-01T18:51:37.064Z,7.71
2023-04-01T18:54:17.677Z,7.77
2023-04-01T18:56:49.966Z,7.77
2023-04-01T18:59:29.801Z,7.79
2023-04-01T19:02:08.304Z,7.82
2023-04-01T19:04:45.795Z,7.83
2023-04-01T19:07:44.220Z,7.82
2023-04-01T19:10:26.915Z,7.79
2023-04-01T19:13:14.022Z,7.75
2023-04-01T19:15:52.355Z,7.73
2023-04-01T19:18:57.414Z,7.69
2023-04-01T19:21:36.142Z,7.66
2023-04-01T19:24:46.700Z,7.63
2023-04-01T19:27:28.623Z,7.63
2023-04-01T19:30:19.646Z,7.69
2023-04-01T19:33:03.810Z,7.71
2023-04-01T19:35:45.901Z,7.74
2023-04-01T19:38:28.750Z,7.77
2023-04-01T19:41:10.034Z,7.77
2023-04-01T19:43:58.402Z,7.74
2023-04-01T19:46:35.567Z,7.71
2023-04-01T19:49:23.917Z,7.69
2023-04-01T19:52:04.564Z,7.68
2023-04-01T19:54:44.800Z,7.66
2023-04-01T19:57:28.938Z,7.66
2023-04-01T20:00:09.799Z,7.69
2023-04-01T20:02:57.714Z,7.70
2023-04-01T20:05:37.601Z,7.68
2023-04-01T20:08:19.254Z,7.69
2023-04-01T20:11:04.163Z,7.71
2023-04-01T20:13:50.185Z,7.69
2023-04-01T20:16:23.639Z,7.67
2023-04-01T20:19:00.748Z,7.65
2023-04-01T20:21:38.661Z,7.63
2023-04-01T20:24:23.003Z,7.60
2023-04-01T20:27:06.344Z,7.57
2023-04-01T20:29:58.734Z,7.56
2023-04-01T20:32:56.123Z,7.59
2023-04-01T20:35:42.098Z,7.55
2023-04-01T20:38:51.221Z,7.51
2023-04-01T20:41:29.351Z,7.49
2023-04-01T20:44:12.137Z,7.46
2023-04-01T20:46:56.113Z,7.40
2023-04-01T20:49:52.170Z,7.34
2023-04-01T20:52:39.425Z,7.30
2023-04-01T20:55:57.618Z,7.26
2023-04-01T20:58:37.548Z,7.22
2023-04-01T21:01:23.303Z,7.19
2023-04-01T21:04:05.109Z,7.20
2023-04-01T21:06:54.710Z,7.26
2023-04-01T21:09:39.389Z,7.23
2023-04-01T21:12:28.589Z,7.19
2023-04-01T21:15:29.778Z,7.19
2023-04-01T21:18:14.342Z,7.24
2023-04-01T21:20:59.104Z,7.26
2023-04-01T21:23:45.508Z,7.26
2023-04-01T21:26:44.299Z,7.26
2023-04-01T21:29:53.881Z,7.23
2023-04-01T21:32:51.451Z,7.19
2023-04-01T21:35:38.165Z,7.14
2023-04-01T21:38:32.123Z,7.13
2023-04-01T21:41:26.571Z,7.14
2023-04-01T21:44:37.493Z,7.22
2023-04-01T21:48:00.599Z,7.15
2023-04-01T21:51:14.267Z,7.15
2023-04-01T21:54:21.739Z,7.16
2023-04-01T21:57:16.960Z,7.15
2023-04-01T22:00:25.161Z,7.11
2023-04-01T22:03:31.393Z,7.06
2023-04-01T22:06:25.002Z,7.02
2023-04-01T22:09:06.543Z,6.99
2023-04-01T22:11:50.794Z,6.94
2023-04-01T22:14:29.956Z,6.91
2023-04-01T22:17:09.134Z,6.93
2023-04-01T22:19:51.888Z,6.97
2023-04-01T22:22:30.943Z,6.94
2023-04-01T22:25:12.233Z,6.90
2023-04-01T22:27:49.477Z,6.91
2023-04-01T22:30:25.704Z,6.93
2023-04-01T22:33:07.636Z,6.91
2023-04-01T22:35:48.909Z,6.89
2023-04-01T22:38:34.800Z,6.86
2023-04-01T22:41:13.618Z,6.83
2023-04-01T22:43:47.371Z,6.81
2023-04-01T22:46:44.963Z,6.80
2023-04-01T22:49:24.150Z,6.76
2023-04-01T22:52:04.917Z,6.78
2023-04-01T22:54:42.596Z,6.82
2023-04-01T22:57:22.284Z,6.80
2023-04-01T23:00:09.123Z,6.80
2023-04-01T23:02:44.768Z,6.79
2023-04-01T23:05:21.369Z,6.79
2023-04-01T23:08:02.812Z,6.76
2023-04-01T23:10:44.680Z,6.77
2023-04-01T23:13:22.726Z,6.76
2023-04-01T23:15:56.229Z,6.73
2023-04-01T23:18:32.419Z,6.69
2023-04-01T23:21:18.014Z,6.66
2023-04-01T23:24:03.193Z,6.61
2023-04-01T23:26:41.853Z,6.60
2023-04-01T23:29:18.382Z,6.63
2023-04-01T23:31:58.745Z,6.63
2023-04-01T23:34:33.403Z,6.64
2023-04-01T23:37:12.725Z,6.65
2023-04-01T23:39:48.006Z,6.62
2023-04-01T23:42:24.502Z,6.61
2023-04-01T23:44:59.729Z,6.63
2023-04-01T23:47:35.393Z,6.64
2023-04-01T23:50:13.296Z,6.64
2023-04-01T23:52:49.197Z,6.60
2023-04-01T23:55:28.274Z,6.58
2023-04-01T23:58:24.059Z,6.64
